Latest Coastal Weather Observations for Evans Head

IDN60701

Issued at 4:42 pm EDT Saturday 31 January 2015 (issued every 10 minutes, with the page automatically refreshed every 10 minutes)

About coastal observations | Map of coastal stations | Coastal observations for NSW | Marine services | Other Formats
Station Details ID: 058212 Name: EVANS HEAD RAAF BOMBING RANGE AWS Lat: -29.18 Lon: 153.40 Height: 62.5 m
Data from the previous 72 hours. | See also: Recent months at Evans Head
Date/Time
EDT
Temp

°C
Wind Pressure Rain
since 9am
mm
Weather Cloud Vis
km
Sea
Height
m
Swell
Dir
 
Speed
knots
Gust
knots
hPa Trend Height
m
Period
s
Dir
31/04:30pm 31.2 N 7 13 1002.1 - 0.0 - - - - - - -
31/04:00pm 29.8 N 10 17 1002.2 - 0.0 - - - - - - -
31/03:30pm 27.0 N 11 18 1003.1 - 0.0 - - - - - - -
31/03:00pm 29.4 NNE 13 20 1003.3 - 0.0 - - - - - - -
31/02:30pm 29.1 NNE 10 17 1003.7 - 0.0 - - - - - - -
31/02:00pm 31.3 NNE 10 18 1004.1 - 0.0 - - - - - - -
31/01:00pm 30.1 NNE 9 15 1005.0 - 0.0 - - - - - - -
31/12:00pm 29.7 E 7 12 1005.8 - 0.0 - - - - - - -
31/11:30am 28.7 E 7 11 1006.2 - 0.0 - - - - - - -
31/11:00am 28.5 NNE 3 9 1006.6 - 0.0 - - - - - - -
31/10:00am 27.3 W 3 8 1006.8 - 0.0 - - - - - - -
31/09:30am 26.2 W 3 6 1007.0 - 0.0 - - - - - - -
31/09:00am 25.8 WNW 3 6 1007.1 - 0.0 - - - - - - -
31/08:30am 24.3 W 1 4 1007.2 - 0.0 - - - - - - -
31/08:00am 23.0 CALM 0 0 1007.2 - 0.0 - - - - - - -
31/07:30am 21.7 SW 4 6 1007.1 - 0.0 - - - - - - -
31/07:00am 20.9 W 4 6 1006.8 - 0.0 - - - - - - -
31/06:30am 19.8 S 4 5 1006.4 - 0.0 - - - - - - -
31/06:00am 19.8 WSW 4 6 1005.9 - 0.0 - - - - - - -
31/05:30am 18.9 NNW 4 5 1005.6 - 0.0 - - - - - - -
31/05:00am 19.4 SSW 5 6 1005.5 - 0.0 - - - - - - -
31/04:30am 19.8 SSW 7 9 1005.4 - 0.0 - - - - - - -
31/03:30am 21.0 NNE 2 4 1004.8 - 0.0 - - - - - - -
31/03:00am 21.0 CALM 0 3 1004.7 - 0.0 - - - - - - -
31/02:30am 20.6 NW 4 6 1004.8 - 0.0 - - - - - - -
31/02:00am 20.5 NW 5 10 1005.0 - 0.0 - - - - - - -
31/01:30am 20.5 NNW 6 10 1005.1 - 0.0 - - - - - - -
31/01:00am 20.7 NNW 6 9 1005.3 - 0.0 - - - - - - -
31/12:30am 20.6 NNW 8 12 1005.5 - 0.0 - - - - - - -
 
Date/Time
EDT
Temp

°C
Wind Pressure Rain
since 9am
mm
Weather Cloud Vis
km
Sea
Height
m
Swell
Dir
 
Speed
knots
Gust
knots
hPa Trend Height
m
Period
s
Dir
30/11:30pm 20.9 NNW 8 12 1005.8 - 0.0 - - - - - - -
30/11:00pm 21.2 N 7 11 1005.9 - 0.0 - - - - - - -
30/10:30pm 21.6 N 10 14 1005.9 - 0.0 - - - - - - -
30/10:00pm 21.9 N 11 16 1005.8 - 0.0 - - - - - - -
30/09:30pm 22.2 N 12 17 1005.6 - 0.0 - - - - - - -
30/09:00pm 22.5 N 11 18 1005.5 - 0.0 - - - - - - -
30/08:30pm 23.0 N 12 16 1005.3 - 0.0 - - - - - - -
30/08:00pm 23.4 N 13 20 1005.2 - 0.0 - - - - - - -
30/07:30pm 23.7 N 11 17 1005.0 - 0.0 - - - - - - -
30/07:00pm 24.6 N 11 16 1004.8 - 0.0 - - - - - - -
30/06:30pm 25.4 NNE 12 19 1004.5 - 0.0 - - - - - - -
30/06:00pm 24.9 N 10 17 1004.3 - 0.0 - - - - - - -
30/05:30pm 26.6 NNE 13 22 1004.2 - 0.0 - - - - - - -
30/05:00pm 25.6 NNE 11 18 1004.5 - 0.0 - - - - - - -
30/04:31pm 26.5 N 15 25 1004.8 - 0.0 - - - - - - -
30/04:30pm 26.3 N 16 25 1004.8 - 0.0 - - - - - - -
30/04:24pm 27.0 NNE 15 25 1004.8 - 0.0 - - - - - - -
30/04:00pm 27.5 NNE 12 20 1005.2 - 0.0 - - - - - - -
30/03:30pm 28.1 NNE 11 20 1005.5 - 0.0 - - - - - - -
30/03:00pm 26.3 NNE 11 18 1005.9 - 0.0 - - - - - - -
30/02:30pm 27.5 NNE 11 19 1006.4 - 0.0 - - - - - - -
30/02:00pm 26.4 NE 10 16 1006.8 - 0.0 - - - - - - -
30/01:30pm 27.5 NE 9 16 1007.2 - 0.0 - - - - - - -
30/01:00pm 27.4 NE 7 13 1007.6 - 0.0 - - - - - - -
30/12:30pm 27.0 NE 7 13 1008.1 - 0.0 - - - - - - -
30/12:00pm 24.9 E 7 11 1008.4 - 0.0 - - - - - - -
30/11:30am 26.1 E 7 10 1008.8 - 0.0 - - - - - - -
30/11:00am 25.1 ESE 7 10 1008.9 - 0.0 - - - - - - -
30/10:30am 25.2 ESE 5 8 1009.1 - 0.0 - - - - - - -
30/10:00am 24.4 SE 2 6 1009.1 - 0.0 - - - - - - -
30/09:30am 24.2 SE 3 7 1009.4 - 0.0 - - - - - - -
30/09:00am 22.8 SSW 3 5 1009.5 - 0.8 - - - - - - -
30/08:30am 21.7 SSW 3 6 1009.6 - 0.8 - - - - - - -
30/08:00am 20.9 SSW 5 7 1009.5 - 0.8 - - - - - - -
30/07:30am 19.9 SW 5 6 1009.3 - 0.8 - - - - - - -
30/07:00am 18.5 SW 7 8 1009.1 - 0.8 - - - - - - -
30/06:30am 17.6 SSW 8 10 1008.9 - 0.8 - - - - - - -
30/06:00am 18.0 SSW 7 9 1008.6 - 0.8 - - - - - - -
30/05:30am 18.5 SSW 7 9 1008.5 - 0.8 - - - - - - -
30/05:00am 18.5 SW 5 6 1008.6 - 0.8 - - - - - - -
30/04:30am 18.9 SSW 6 8 1008.8 - 0.8 - - - - - - -
30/04:00am 19.2 SSW 7 9 1008.8 - 0.8 - - - - - - -
30/03:30am 19.5 SSW 6 8 1009.0 - 0.8 - - - - - - -
30/03:00am 19.7 SSW 7 9 1009.2 - 0.8 - - - - - - -
30/02:30am 20.0 SW 5 8 1009.5 - 0.8 - - - - - - -
30/02:00am 20.6 S 7 10 1009.7 - 0.8 - - - - - - -
30/01:30am 20.3 SE 8 11 1009.8 - 0.8 - - - - - - -
30/01:00am 20.6 SE 9 12 1010.1 - 0.8 - - - - - - -
30/12:30am 20.6 ESE 9 13 1010.2 - 0.8 - - - - - - -
30/12:00am 19.9 E 8 11 1010.4 - 0.8 Recent precip. - - - - - -
 
Date/Time
EDT
Temp

°C
Wind Pressure Rain
since 9am
mm
Weather Cloud Vis
km
Sea
Height
m
Swell
Dir
 
Speed
knots
Gust
knots
hPa Trend Height
m
Period
s
Dir
29/11:30pm 19.4 ESE 8 11 1010.7 - 0.8 - - - - - - -
29/11:00pm 19.6 ESE 7 10 1010.8 - 0.6 - - - - - - -
29/10:30pm 21.8 ESE 9 15 1010.5 - 0.0 - - - - - - -
29/10:00pm 22.5 ESE 10 15 1010.3 - 0.0 - - - - - - -
29/09:30pm 22.8 ESE 11 16 1010.1 - 0.0 - - - - - - -
29/09:00pm 22.7 ESE 12 17 1009.8 - 0.0 - - - - - - -
29/08:30pm 22.7 SE 11 16 1009.8 - 0.0 - - - - - - -
29/08:00pm 22.7 SE 12 18 1009.3 - 0.0 - - - - - - -
29/07:30pm 22.7 SE 11 17 1008.9 - 0.0 - - - - - - -
29/07:00pm 22.8 SE 13 17 1008.4 - 0.0 - - - - - - -
29/06:30pm 23.5 SE 12 17 1008.1 - 0.0 - - - - - - -
29/06:00pm 23.2 SE 12 18 1007.8 - 0.0 - - - - - - -
29/05:30pm 24.5 SE 12 18 1007.5 - 0.0 - - - - - - -
29/05:00pm 24.3 SE 11 16 1007.5 - 0.0 - - - - - - -
29/04:30pm 25.9 SE 11 16 1007.5 - 0.0 - - - - - - -
29/04:00pm 25.7 SE 12 17 1007.7 - 0.0 - - - - - - -
29/03:30pm 26.1 SE 14 20 1007.7 - 0.0 - - - - - - -
29/03:00pm 25.6 SE 15 21 1007.9 - 0.0 - - - - - - -
29/02:30pm 25.1 SE 15 19 1007.9 - 0.0 - - - - - - -
29/02:00pm 25.6 SE 16 21 1008.1 - 0.0 - - - - - - -
29/01:30pm 25.5 SE 15 20 1008.5 - 0.0 - - - - - - -
29/01:00pm 25.8 SE 16 21 1008.8 - 0.0 - - - - - - -
29/12:30pm 25.3 SSE 16 21 1008.9 - 0.0 - - - - - - -
29/12:00pm 25.3 SSE 15 21 1009.2 - 0.0 - - - - - - -
29/11:30am 24.8 SSE 15 20 1009.3 - 0.0 - - - - - - -
29/11:00am 24.4 SSE 11 19 1009.5 - 0.0 - - - - - - -
29/10:30am 23.9 SSE 12 16 1009.5 - 0.0 - - - - - - -
29/10:00am 23.0 S 14 19 1009.5 - 0.0 - - - - - - -
29/09:30am 22.4 SSE 14 20 1009.5 - 0.0 - - - - - - -
29/09:00am 22.0 S 13 19 1009.3 - 1.8 - - - - - - -
29/08:30am 21.4 S 13 20 1009.1 - 1.8 - - - - - - -
29/08:00am 20.1 SSW 10 15 1008.9 - 1.8 - - - - - - -
29/07:30am 18.7 SSW 13 19 1008.5 - 1.8 - - - - - - -
29/07:00am 17.6 SSW 12 18 1008.5 - 1.8 - - - - - - -
29/06:30am 17.4 SW 10 14 1008.2 - 1.8 - - - - - - -
29/06:00am 17.5 SW 10 12 1007.9 - 1.8 - - - - - - -
29/05:30am 17.5 SW 10 13 1007.6 - 1.8 - - - - - - -
29/05:00am 17.6 SW 9 12 1007.5 - 1.8 - - - - - - -
29/04:30am 17.5 SW 9 13 1007.4 - 1.8 - - - - - - -
29/04:00am 17.7 SW 8 11 1007.4 - 1.8 - - - - - - -
29/03:30am 17.4 SW 9 12 1007.4 - 1.8 - - - - - - -
29/03:00am 17.7 SSW 10 12 1007.5 - 1.8 - - - - - - -
29/02:30am 17.9 SW 9 12 1007.7 - 1.8 - - - - - - -
29/02:00am 18.5 SSW 11 15 1007.9 - 1.8 - - - - - - -
29/01:30am 18.4 SSW 9 13 1008.3 - 1.8 - - - - - - -
29/01:00am 18.9 SSW 13 18 1008.4 - 1.8 - - - - - - -
29/12:30am 18.9 S 13 18 1008.4 - 1.8 - - - - - - -
29/12:00am 19.2 SSW 13 17 1008.5 - 1.8 - - - - - - -
 
Date/Time
EDT
Temp

°C
Wind Pressure Rain
since 9am
mm
Weather Cloud Vis
km
Sea
Height
m
Swell
Dir
 
Speed
knots
Gust
knots
hPa Trend Height
m
Period
s
Dir
28/11:30pm 19.4 SSW 13 17 1008.7 - 1.8 - - - - - - -
28/11:00pm 19.8 S 13 19 1008.9 - 1.8 - - - - - - -
28/10:30pm 19.9 S 12 18 1008.9 - 1.8 - - - - - - -
28/10:00pm 19.7 S 12 17 1008.9 - 1.8 - - - - - - -
28/09:30pm 20.1 S 11 16 1008.7 - 1.8 - - - - - - -
28/09:00pm 20.3 S 11 17 1008.5 - 1.8 - - - - - - -
28/08:30pm 20.8 S 13 19 1008.1 - 1.8 - - - - - - -
28/08:00pm 21.2 S 14 23 1007.9 - 1.8 - - - - - - -
28/07:42pm 21.4 S 17 27 1007.9 - 1.8 - - - - - - -
28/07:30pm 21.7 S 18 27 1007.7 - 1.8 - - - - - - -
28/07:26pm 21.6 S 17 27 1007.7 - 1.8 - - - - - - -
28/07:00pm 20.8 SSE 13 19 1007.5 - 1.8 - - - - - - -
28/06:30pm 22.9 S 15 21 1007.1 - 1.8 - - - - - - -
28/06:00pm 21.2 SSE 12 17 1007.2 - 1.8 Rain - - - - - -
28/05:30pm 21.9 S 14 20 1006.9 - 1.6 - - - - - - -
28/05:00pm 21.8 S 17 26 1006.7 - 1.6 - - - - - - -
28/04:50pm 21.5 S 16 26 1006.8 - 1.6 - - - - - - -

Other Formats:

Comma delimited format used in spreadsheet applications
http://www.bom.gov.au/fwo/IDN60701/IDN60701.94598.axf

JavaScript Object Notation format (JSON) in row-major order
http://www.bom.gov.au/fwo/IDN60701/IDN60701.94598.json